LPHR/HOR METAR and TAF weather

Enter ICAO airport designator
Station Type Date Time Source
LPHR METAR 2019/08/25 06:30 UTC NOAA

LPHR 250630Z 02009KT 9999 FEW020 20/15 Q1024


Station Type Date Time Source
LPHR Decoded METAR 2019/08/25 06:30 UTC NOAA

Station name not available
Aug 25, 2019 - 02:30 AM EDT / 2019.08.25 0630 UTC
Wind: from the NNE (020 degrees) at 10 MPH (9 KT):0
Visibility: greater than 7 mile(s):0
Sky conditions: mostly clear
Temperature: 68 F (20 C)
Dew Point: 59 F (15 C)
Relative Humidity: 72%
Pressure (altimeter): 30.24 in. Hg (1024 hPa)
ob: LPHR 250630Z 02009KT 9999 FEW020 20/15 Q1024
cycle: 6

Station Type Date Time Source
LPHR TAF 2018/09/06 09:00 UTC NOAA

TAF LPHR 060800Z 0609/0618 12010KT 9999 SCT018 SCT040 PROB30
TEMPO 0609/0618 5000 SHRA BKN015 FEW018CB
BECMG 0610/0612 18010KT

Example: see airport list